createdAt,value
2022-09-16T00:00:59.296Z,101106.97
2022-09-16T00:03:26.947Z,101100.91
2022-09-16T00:05:54.873Z,101101.75
2022-09-16T00:08:23.250Z,101097.41
2022-09-16T00:10:51.326Z,101106.97
2022-09-16T00:13:19.955Z,101099.13
2022-09-16T00:15:50.976Z,101100.88
2022-09-16T00:18:19.530Z,101097.41
2022-09-16T00:20:52.368Z,101113.00
2022-09-16T00:23:20.928Z,101110.41
2022-09-16T00:25:53.629Z,101124.28
2022-09-16T00:28:22.720Z,101114.69
2022-09-16T00:30:50.764Z,101113.84
2022-09-16T00:33:18.787Z,101119.88
2022-09-16T00:35:46.843Z,101112.94
2022-09-16T00:38:15.050Z,101109.44
2022-09-16T00:40:51.247Z,101100.84
2022-09-16T00:43:20.571Z,101098.22
2022-09-16T00:45:55.675Z,101093.00
2022-09-16T00:48:27.343Z,101094.78
2022-09-16T00:51:03.345Z,101091.31
2022-09-16T00:53:39.528Z,101089.59
2022-09-16T00:56:13.087Z,101084.44
2022-09-16T00:58:47.818Z,101093.13
2022-09-16T01:01:15.643Z,101084.47
2022-09-16T01:03:47.827Z,101089.69
2022-09-16T01:06:18.163Z,101098.41
2022-09-16T01:08:46.549Z,101093.19
2022-09-16T01:11:14.027Z,101093.19
2022-09-16T01:13:43.839Z,101093.19
2022-09-16T01:16:17.642Z,101086.25
2022-09-16T01:18:56.227Z,101100.13
2022-09-16T01:21:49.574Z,101103.63
2022-09-16T01:24:55.426Z,101103.63
2022-09-16T01:27:36.287Z,101095.81
2022-09-16T01:30:31.374Z,101089.78
2022-09-16T01:33:04.876Z,101102.00
2022-09-16T01:36:00.186Z,101096.81
2022-09-16T01:38:34.732Z,101095.13
2022-09-16T01:41:11.024Z,101098.63
2022-09-16T01:44:04.905Z,101100.41
2022-09-16T01:47:03.173Z,101091.75
2022-09-16T01:49:58.923Z,101092.59
2022-09-16T01:52:40.928Z,101084.84
2022-09-16T01:55:30.519Z,101090.91
2022-09-16T01:58:04.440Z,101088.34
2022-09-16T02:00:32.741Z,101102.19
2022-09-16T02:03:06.602Z,101096.97
2022-09-16T02:05:48.115Z,101104.78
2022-09-16T02:08:22.502Z,101110.84
2022-09-16T02:10:55.043Z,101107.38
2022-09-16T02:13:31.737Z,101102.13
2022-09-16T02:16:05.147Z,101105.59
2022-09-16T02:18:36.797Z,101098.66
2022-09-16T02:21:07.941Z,101103.81
2022-09-16T02:24:04.206Z,101094.22
2022-09-16T02:26:38.870Z,101103.75
2022-09-16T02:29:18.865Z,101099.44
2022-09-16T02:31:49.537Z,101103.75
2022-09-16T02:34:29.382Z,101107.22
2022-09-16T02:37:02.524Z,101123.69
2022-09-16T02:39:33.471Z,101119.38
2022-09-16T02:42:02.138Z,101118.47
2022-09-16T02:44:29.712Z,101089.88
2022-09-16T02:47:13.761Z,101098.50
2022-09-16T02:49:45.977Z,101083.78
2022-09-16T02:52:31.634Z,101091.53
2022-09-16T02:55:20.724Z,101105.47
2022-09-16T02:57:48.454Z,101107.25
2022-09-16T03:00:16.135Z,101097.72
2022-09-16T03:02:43.966Z,101086.41
2022-09-16T03:05:11.621Z,101080.38
2022-09-16T03:07:42.421Z,101088.25
2022-09-16T03:10:12.816Z,101086.53
2022-09-16T03:12:49.589Z,101086.56
2022-09-16T03:15:24.999Z,101086.59
2022-09-16T03:18:14.834Z,101100.50
2022-09-16T03:21:03.751Z,101106.59
2022-09-16T03:24:05.424Z,101106.59
2022-09-16T03:26:38.329Z,101107.47
2022-09-16T03:29:43.737Z,101121.34
2022-09-16T03:32:28.449Z,101151.72
2022-09-16T03:35:04.181Z,101143.91
2022-09-16T03:37:35.516Z,101133.47
2022-09-16T03:40:11.084Z,101128.25
2022-09-16T03:42:44.258Z,101124.75
2022-09-16T03:45:21.474Z,101116.16
2022-09-16T03:47:51.169Z,101107.50
2022-09-16T03:50:20.367Z,101093.63
2022-09-16T03:52:48.030Z,101097.06
2022-09-16T03:55:16.850Z,101085.81
2022-09-16T03:57:44.511Z,101080.59
2022-09-16T04:00:12.483Z,101084.88
2022-09-16T04:02:40.291Z,101094.44
2022-09-16T04:05:09.246Z,101081.44
2022-09-16T04:07:36.930Z,101088.34
2022-09-16T04:10:05.863Z,101086.63
2022-09-16T04:12:33.789Z,101089.22
2022-09-16T04:15:01.364Z,101102.22
2022-09-16T04:17:32.079Z,101086.56
2022-09-16T04:19:59.631Z,101090.06
2022-09-16T04:22:30.582Z,101077.88
2022-09-16T04:24:58.885Z,101080.47
2022-09-16T04:27:26.402Z,101082.25
2022-09-16T04:29:53.971Z,101083.13
2022-09-16T04:32:21.518Z,101073.63
2022-09-16T04:34:49.247Z,101077.13
2022-09-16T04:37:17.122Z,101076.28
2022-09-16T04:39:44.981Z,101079.78
2022-09-16T04:42:13.202Z,101072.88
2022-09-16T04:44:40.858Z,101074.66
2022-09-16T04:47:08.407Z,101078.13
2022-09-16T04:49:35.954Z,101076.41
2022-09-16T04:52:04.091Z,101073.81
2022-09-16T04:54:31.648Z,101061.72
2022-09-16T04:56:59.179Z,101080.78
2022-09-16T04:59:26.671Z,101091.19
2022-09-16T05:01:54.304Z,101086.00
2022-09-16T05:04:21.927Z,101084.22
2022-09-16T05:06:49.375Z,101084.22
2022-09-16T05:09:16.919Z,101086.78
2022-09-16T05:11:44.514Z,101088.53
2022-09-16T05:14:15.803Z,101083.34
2022-09-16T05:16:44.227Z,101095.47
2022-09-16T05:19:13.221Z,101090.28
2022-09-16T05:21:41.378Z,101092.03
2022-09-16T05:24:11.395Z,101097.19
2022-09-16T05:26:41.884Z,101102.41
2022-09-16T05:29:13.017Z,101118.00
2022-09-16T05:31:42.832Z,101111.03
2022-09-16T05:34:19.432Z,101111.94
2022-09-16T05:36:48.840Z,101103.28
2022-09-16T05:39:26.159Z,101100.69
2022-09-16T05:41:59.832Z,101105.94
2022-09-16T05:44:28.734Z,101111.16
2022-09-16T05:46:56.374Z,101112.91
2022-09-16T05:49:24.316Z,101112.91
2022-09-16T05:51:52.150Z,101113.78
2022-09-16T05:54:20.538Z,101114.66
2022-09-16T05:56:48.717Z,101113.78
2022-09-16T05:59:17.493Z,101107.72
2022-09-16T06:01:45.868Z,101104.25
2022-09-16T06:04:15.256Z,101118.09
2022-09-16T06:06:47.866Z,101126.75
2022-09-16T06:09:26.195Z,101127.56
2022-09-16T06:12:00.965Z,101119.72
2022-09-16T06:14:29.545Z,101126.66
2022-09-16T06:16:57.174Z,101123.16
2022-09-16T06:19:24.695Z,101121.44
2022-09-16T06:21:52.292Z,101132.69
2022-09-16T06:24:21.749Z,101128.38
2022-09-16T06:26:50.245Z,101123.19
2022-09-16T06:29:18.403Z,101130.16
2022-09-16T06:31:46.105Z,101133.59
2022-09-16T06:34:19.024Z,101130.94
2022-09-16T06:36:46.999Z,101134.34
2022-09-16T06:39:16.159Z,101130.78
2022-09-16T06:41:43.986Z,101128.03
2022-09-16T06:44:11.546Z,101132.22
2022-09-16T06:46:39.367Z,101136.41
2022-09-16T06:49:07.104Z,101132.97
2022-09-16T06:51:35.872Z,101128.66
2022-09-16T06:54:05.882Z,101138.22
2022-09-16T06:56:36.041Z,101131.31
2022-09-16T06:59:03.972Z,101112.25
2022-09-16T07:01:32.751Z,101119.28
2022-09-16T07:04:05.411Z,101110.66
2022-09-16T07:06:58.269Z,101115.88
2022-09-16T07:09:21.275Z,101117.59
2022-09-16T07:11:48.727Z,101110.56
2022-09-16T07:14:16.168Z,101114.84
2022-09-16T07:16:43.729Z,101109.50
2022-09-16T07:19:11.404Z,101102.41
2022-09-16T07:21:39.014Z,101099.66
2022-09-16T07:24:06.695Z,101103.03
2022-09-16T07:26:37.652Z,101104.75
2022-09-16T07:29:06.926Z,101096.78
2022-09-16T07:31:38.717Z,101099.22
2022-09-16T07:34:08.226Z,101106.88
2022-09-16T07:36:44.303Z,101066.94
2022-09-16T07:39:13.616Z,101099.66
2022-09-16T07:41:43.410Z,101103.91
2022-09-16T07:44:16.209Z,101111.63
2022-09-16T07:46:44.519Z,101113.22
2022-09-16T07:49:15.269Z,101111.22
2022-09-16T07:51:43.079Z,101115.25
2022-09-16T07:54:14.371Z,101128.25
2022-09-16T07:56:43.708Z,101126.72
2022-09-16T07:59:17.659Z,101130.72
2022-09-16T08:01:47.161Z,101137.81
2022-09-16T08:04:14.813Z,101143.59
2022-09-16T08:06:42.489Z,101137.06
2022-09-16T08:09:27.353Z,101156.34
2022-09-16T08:11:57.546Z,101155.03
2022-09-16T08:14:25.429Z,101171.81
2022-09-16T08:16:52.983Z,101157.28
2022-09-16T08:19:22.257Z,101152.19
2022-09-16T08:21:50.107Z,101145.28
2022-09-16T08:24:17.575Z,101144.44
2022-09-16T08:26:45.126Z,101150.56
2022-09-16T08:29:12.834Z,101147.06
2022-09-16T08:31:40.712Z,101146.16
2022-09-16T08:34:08.203Z,101153.00
2022-09-16T08:36:35.810Z,101143.31
2022-09-16T08:39:03.570Z,101148.06
2022-09-16T08:41:43.260Z,101150.81
2022-09-16T08:44:28.785Z,101143.69
2022-09-16T08:47:00.796Z,101150.69
2022-09-16T08:49:46.385Z,101150.75
2022-09-16T08:52:24.798Z,101160.31
2022-09-16T08:54:56.849Z,101155.81
2022-09-16T08:57:30.075Z,101160.94
2022-09-16T09:00:13.682Z,101164.97
2022-09-16T09:02:56.499Z,101177.72
2022-09-16T09:05:32.512Z,101183.38
2022-09-16T09:08:10.014Z,101184.75
2022-09-16T09:10:49.384Z,101181.41
2022-09-16T09:13:48.103Z,101191.38
2022-09-16T09:16:20.133Z,101174.09
2022-09-16T09:19:14.627Z,101175.88
2022-09-16T09:21:46.938Z,101183.72
2022-09-16T09:24:26.532Z,101188.94
2022-09-16T09:27:01.664Z,101189.47
2022-09-16T09:29:50.830Z,101181.31
2022-09-16T09:32:48.133Z,101179.56
2022-09-16T09:35:29.444Z,101173.28
2022-09-16T09:38:29.601Z,101170.16
2022-09-16T09:41:04.317Z,101171.72
2022-09-16T09:43:42.953Z,101165.19
2022-09-16T09:46:31.123Z,101164.91
2022-09-16T09:49:05.249Z,101154.16
2022-09-16T09:51:38.338Z,101161.97
2022-09-16T09:54:27.939Z,101168.56
2022-09-16T09:57:03.559Z,101166.72
2022-09-16T09:59:48.075Z,101158.16
2022-09-16T10:02:18.925Z,101154.75
2022-09-16T10:04:47.015Z,101162.19
2022-09-16T10:07:17.292Z,101154.97
2022-09-16T10:10:13.352Z,101170.75
2022-09-16T10:12:40.832Z,101181.66
2022-09-16T10:15:21.854Z,101200.00
2022-09-16T10:17:51.269Z,101195.44
2022-09-16T10:20:40.610Z,101193.63
2022-09-16T10:23:12.975Z,101184.31
2022-09-16T10:25:41.729Z,101175.91
2022-09-16T10:28:25.185Z,101182.16
2022-09-16T10:30:58.538Z,101179.75
2022-09-16T10:33:31.649Z,101179.78
2022-09-16T10:36:03.627Z,101176.38
2022-09-16T10:38:40.465Z,101179.88
2022-09-16T10:41:15.431Z,101191.13
2022-09-16T10:43:51.610Z,101191.19
2022-09-16T10:46:20.675Z,101193.78
2022-09-16T10:48:51.837Z,101186.84
2022-09-16T10:51:28.520Z,101190.34
2022-09-16T10:53:59.124Z,101186.78
2022-09-16T10:56:30.167Z,101184.75
2022-09-16T10:59:15.351Z,101192.16
2022-09-16T11:02:01.500Z,101183.78
2022-09-16T11:04:50.700Z,101180.47
2022-09-16T11:07:39.432Z,101166.38
2022-09-16T11:10:33.857Z,101169.63
2022-09-16T11:13:09.489Z,101182.13
2022-09-16T11:15:53.185Z,101173.28
2022-09-16T11:18:52.272Z,101186.06
2022-09-16T11:21:44.574Z,101185.50
2022-09-16T11:24:49.921Z,101196.50
2022-09-16T11:27:39.998Z,101201.75
2022-09-16T11:30:18.225Z,101213.63
2022-09-16T11:33:03.369Z,101207.88
2022-09-16T11:36:16.048Z,101210.72
2022-09-16T11:38:58.840Z,101188.16
2022-09-16T11:41:42.582Z,101187.03
2022-09-16T11:44:16.283Z,101178.72
2022-09-16T11:47:21.055Z,101183.28
2022-09-16T11:49:48.449Z,101173.97
2022-09-16T11:52:28.365Z,101176.44
2022-09-16T11:55:18.357Z,101176.69
2022-09-16T11:57:54.991Z,101169.22
2022-09-16T12:00:22.528Z,101168.53
2022-09-16T12:02:59.382Z,101165.59
2022-09-16T12:05:44.340Z,101162.59
2022-09-16T12:08:14.348Z,101161.06
2022-09-16T12:10:56.868Z,101157.91
2022-09-16T12:13:43.080Z,101152.72
2022-09-16T12:16:15.117Z,101146.59
2022-09-16T12:18:52.646Z,101143.56
2022-09-16T12:21:29.498Z,101145.53
2022-09-16T12:24:06.346Z,101130.81
2022-09-16T12:27:04.105Z,101145.88
2022-09-16T12:29:45.216Z,101144.72
2022-09-16T12:32:19.643Z,101157.56
2022-09-16T12:35:02.348Z,101162.59
2022-09-16T12:37:41.274Z,101169.84
2022-09-16T12:40:18.566Z,101163.59
2022-09-16T12:43:02.316Z,101165.63
2022-09-16T12:45:50.706Z,101195.56
2022-09-16T12:48:45.578Z,101175.63
2022-09-16T12:51:24.957Z,101174.97
2022-09-16T12:54:01.799Z,101176.44
2022-09-16T12:56:41.491Z,101171.34
2022-09-16T12:59:27.004Z,101161.66
2022-09-16T13:02:01.982Z,101175.53
2022-09-16T13:04:35.262Z,101179.91
2022-09-16T13:07:02.982Z,101170.44
2022-09-16T13:09:36.164Z,101161.13
2022-09-16T13:15:23.247Z,101158.00
2022-09-16T13:17:53.046Z,101149.13
2022-09-16T13:20:50.027Z,101135.00
2022-09-16T13:23:25.830Z,101123.22
2022-09-16T13:26:02.464Z,101122.28
2022-09-16T13:28:44.986Z,101126.97
2022-09-16T13:31:12.491Z,101121.00
2022-09-16T13:33:41.800Z,101119.28
2022-09-16T13:36:17.475Z,101125.41
2022-09-16T13:38:49.704Z,101118.47
2022-09-16T13:41:37.463Z,101110.84
2022-09-16T13:44:27.436Z,101112.22
2022-09-16T13:46:55.321Z,101114.88
2022-09-16T13:49:27.794Z,101116.97
2022-09-16T13:51:55.670Z,101117.78
2022-09-16T13:54:26.071Z,101123.00
2022-09-16T13:57:22.924Z,101111.28
2022-09-16T14:00:08.758Z,101121.03
2022-09-16T14:02:36.246Z,101118.09
2022-09-16T14:05:30.391Z,101116.69
2022-09-16T14:08:28.167Z,101137.16
2022-09-16T14:11:22.176Z,101130.53
2022-09-16T14:14:04.633Z,101134.78
2022-09-16T14:16:35.929Z,101126.44
2022-09-16T14:19:19.970Z,101119.34
2022-09-16T14:21:48.223Z,101110.81
2022-09-16T14:24:20.690Z,101137.03
2022-09-16T14:26:58.147Z,101125.50
2022-09-16T14:29:27.220Z,101120.16
2022-09-16T14:31:57.824Z,101119.75
2022-09-16T14:34:27.896Z,101119.25
2022-09-16T14:36:55.821Z,101112.34
2022-09-16T14:39:26.585Z,101141.09
2022-09-16T14:41:55.779Z,101130.28
2022-09-16T14:44:37.962Z,101126.22
2022-09-16T14:47:50.031Z,101124.56
2022-09-16T14:50:26.290Z,101128.25
2022-09-16T14:53:02.590Z,101132.13
2022-09-16T14:55:31.763Z,101128.69
2022-09-16T14:58:00.782Z,101120.03
2022-09-16T15:00:42.357Z,101122.38
2022-09-16T15:03:15.941Z,101129.09
2022-09-16T15:05:47.364Z,101122.72
2022-09-16T15:08:35.854Z,101123.72
2022-09-16T15:11:29.735Z,101113.50
2022-09-16T15:14:02.125Z,101114.63
2022-09-16T15:16:29.769Z,101121.56
2022-09-16T15:19:02.921Z,101124.25
2022-09-16T15:21:34.245Z,101103.09
2022-09-16T15:24:05.119Z,101112.41
2022-09-16T15:26:53.789Z,101103.84
2022-09-16T15:29:21.243Z,101112.41
2022-09-16T15:31:50.642Z,101108.06
2022-09-16T15:34:18.747Z,101120.19
2022-09-16T15:36:57.308Z,101121.16
2022-09-16T15:39:29.359Z,101122.66
2022-09-16T15:42:24.301Z,101119.47
2022-09-16T15:45:03.960Z,101114.16
2022-09-16T15:47:34.111Z,101112.16
2022-09-16T15:50:06.571Z,101124.56
2022-09-16T15:52:55.096Z,101119.47
2022-09-16T15:55:47.455Z,101122.97
2022-09-16T15:58:19.524Z,101115.44
2022-09-16T16:01:11.146Z,101133.97
2022-09-16T16:04:00.728Z,101129.94
2022-09-16T16:06:49.736Z,101112.34
2022-09-16T16:09:29.474Z,101128.13
2022-09-16T16:12:01.870Z,101133.75
2022-09-16T16:14:32.915Z,101132.38
2022-09-16T16:17:13.207Z,101144.66
2022-09-16T16:19:42.881Z,101142.28
2022-09-16T16:22:11.727Z,101136.50
2022-09-16T16:24:39.652Z,101153.13
2022-09-16T16:27:08.497Z,101156.72
2022-09-16T16:29:36.098Z,101148.03
2022-09-16T16:32:07.716Z,101161.97
2022-09-16T16:34:43.608Z,101154.00
2022-09-16T16:37:28.013Z,101166.91
2022-09-16T16:40:00.587Z,101193.13
2022-09-16T16:42:28.866Z,101188.44
2022-09-16T16:44:56.518Z,101170.94
2022-09-16T16:47:24.280Z,101170.56
2022-09-16T16:49:52.017Z,101157.63
2022-09-16T16:52:19.824Z,101153.38
2022-09-16T16:54:47.327Z,101158.66
2022-09-16T16:57:15.047Z,101162.19
2022-09-16T16:59:42.459Z,101158.78
2022-09-16T17:02:12.605Z,101160.56
2022-09-16T17:04:40.127Z,101157.06
2022-09-16T17:07:25.301Z,101158.78
2022-09-16T17:09:54.598Z,101163.97
2022-09-16T17:12:22.533Z,101177.00
2022-09-16T17:14:50.023Z,101163.88
2022-09-16T17:17:17.534Z,101165.53
2022-09-16T17:19:45.125Z,101171.56
2022-09-16T17:22:12.629Z,101166.34
2022-09-16T17:24:40.230Z,101164.59
2022-09-16T17:27:07.910Z,101170.66
2022-09-16T17:29:35.489Z,101172.44
2022-09-16T17:32:03.431Z,101175.84
2022-09-16T17:34:31.142Z,101175.81
2022-09-16T17:36:58.863Z,101172.28
2022-09-16T17:39:26.435Z,101180.09
2022-09-16T17:41:54.514Z,101181.03
2022-09-16T17:44:22.125Z,101181.97
2022-09-16T17:46:49.847Z,101187.25
2022-09-16T17:49:22.651Z,101198.59
2022-09-16T17:51:54.115Z,101195.16
2022-09-16T17:54:22.433Z,101199.53
2022-09-16T17:56:49.934Z,101198.72
2022-09-16T17:59:19.223Z,101196.09
2022-09-16T18:01:47.055Z,101202.22
2022-09-16T18:04:14.562Z,101196.16
2022-09-16T18:06:44.887Z,101192.72
2022-09-16T18:09:13.290Z,101198.81
2022-09-16T18:11:41.212Z,101200.53
2022-09-16T18:14:11.877Z,101205.75
2022-09-16T18:16:40.090Z,101206.66
2022-09-16T18:19:08.007Z,101207.53
2022-09-16T18:21:36.789Z,101205.75
2022-09-16T18:24:08.479Z,101214.50
2022-09-16T18:26:35.984Z,101211.09
2022-09-16T18:29:17.933Z,101206.75
2022-09-16T18:31:47.923Z,101204.22
2022-09-16T18:34:17.395Z,101198.09
2022-09-16T18:36:45.289Z,101216.38
2022-09-16T18:39:16.489Z,101215.53
2022-09-16T18:41:46.075Z,101211.22
2022-09-16T18:44:23.609Z,101215.63
2022-09-16T18:46:51.957Z,101219.97
2022-09-16T18:49:21.996Z,101202.59
2022-09-16T18:51:52.337Z,101219.94
2022-09-16T18:54:24.669Z,101226.88
2022-09-16T18:56:53.082Z,101225.19
2022-09-16T18:59:24.276Z,101229.50
2022-09-16T19:01:54.591Z,101233.00
2022-09-16T19:04:24.998Z,101236.44
2022-09-16T19:06:55.571Z,101239.06
2022-09-16T19:09:24.911Z,101239.94
2022-09-16T19:11:54.280Z,101240.81
2022-09-16T19:14:24.273Z,101237.34
2022-09-16T19:16:51.913Z,101249.47
2022-09-16T19:19:19.440Z,101238.19
2022-09-16T19:21:47.200Z,101254.66
2022-09-16T19:24:26.949Z,101245.97
2022-09-16T19:26:56.058Z,101254.69
2022-09-16T19:29:24.229Z,101248.63
2022-09-16T19:31:53.076Z,101259.06
2022-09-16T19:34:21.422Z,101265.19
2022-09-16T19:36:49.663Z,101266.09
2022-09-16T19:39:17.269Z,101266.09
2022-09-16T19:41:45.126Z,101278.25
2022-09-16T19:44:15.628Z,101276.53
2022-09-16T19:46:44.774Z,101282.63
2022-09-16T19:49:17.213Z,101281.72
2022-09-16T19:51:46.268Z,101277.41
2022-09-16T19:54:13.759Z,101265.25
2022-09-16T19:56:41.859Z,101281.75
2022-09-16T19:59:09.821Z,101272.22
2022-09-16T20:01:38.021Z,101286.06
2022-09-16T20:04:08.265Z,101279.13
2022-09-16T20:06:43.284Z,101270.41
2022-09-16T20:09:13.048Z,101277.41
2022-09-16T20:11:45.834Z,101267.81
2022-09-16T20:14:19.760Z,101274.81
2022-09-16T20:16:48.193Z,101268.78
2022-09-16T20:19:17.834Z,101274.88
2022-09-16T20:21:45.886Z,101280.97
2022-09-16T20:24:21.827Z,101286.19
2022-09-16T20:26:51.358Z,101289.69
2022-09-16T20:29:19.463Z,101293.19
2022-09-16T20:31:48.828Z,101288.00
2022-09-16T20:34:17.094Z,101287.16
2022-09-16T20:36:45.966Z,101286.31
2022-09-16T20:39:14.763Z,101286.31
2022-09-16T20:41:42.950Z,101278.50
2022-09-16T20:44:15.537Z,101271.56
2022-09-16T20:46:43.485Z,101277.66
2022-09-16T20:49:19.498Z,101276.81
2022-09-16T20:51:47.172Z,101291.56
2022-09-16T20:54:17.048Z,101294.16
2022-09-16T20:56:47.042Z,101294.16
2022-09-16T20:59:16.312Z,101298.50
2022-09-16T21:01:44.621Z,101288.09
2022-09-16T21:04:15.525Z,101294.13
2022-09-16T21:06:43.200Z,101304.56
2022-09-16T21:09:13.565Z,101300.22
2022-09-16T21:11:45.026Z,101306.28
2022-09-16T21:14:16.113Z,101308.88
2022-09-16T21:16:45.278Z,101311.50
2022-09-16T21:19:13.468Z,101308.84
2022-09-16T21:21:44.049Z,101310.63
2022-09-16T21:24:11.676Z,101314.06
2022-09-16T21:26:40.470Z,101308.84
2022-09-16T21:29:13.347Z,101310.59
2022-09-16T21:31:42.569Z,101310.59
2022-09-16T21:34:16.000Z,101314.94
2022-09-16T21:36:44.995Z,101308.84
2022-09-16T21:39:14.142Z,101315.78
2022-09-16T21:41:42.445Z,101320.13
2022-09-16T21:44:09.936Z,101317.50
2022-09-16T21:46:45.055Z,101317.50
2022-09-16T21:49:25.306Z,101312.31
2022-09-16T21:51:54.719Z,101313.19
2022-09-16T21:54:23.093Z,101321.00
2022-09-16T21:56:51.802Z,101324.50
2022-09-16T21:59:20.604Z,101322.75
2022-09-16T22:01:49.406Z,101327.97
2022-09-16T22:04:23.085Z,101331.44
2022-09-16T22:06:52.693Z,101340.13
2022-09-16T22:09:20.206Z,101341.84
2022-09-16T22:11:48.293Z,101325.38
2022-09-16T22:14:16.373Z,101326.22
2022-09-16T22:16:44.178Z,101315.78
2022-09-16T22:19:17.522Z,101313.19
2022-09-16T22:21:47.469Z,101331.44
2022-09-16T22:24:19.888Z,101319.28
2022-09-16T22:26:48.840Z,101320.16
2022-09-16T22:29:16.423Z,101328.84
2022-09-16T22:31:43.990Z,101329.72
2022-09-16T22:34:11.676Z,101332.34
2022-09-16T22:36:40.035Z,101321.06
2022-09-16T22:39:12.725Z,101322.78
2022-09-16T22:41:40.296Z,101330.59
2022-09-16T22:44:08.071Z,101329.72
2022-09-16T22:46:41.409Z,101338.41
2022-09-16T22:49:08.930Z,101327.13
2022-09-16T22:51:36.404Z,101321.88
2022-09-16T22:54:03.957Z,101329.69
2022-09-16T22:56:33.663Z,101336.63
2022-09-16T22:59:03.492Z,101327.94
2022-09-16T23:01:34.125Z,101333.16
2022-09-16T23:04:03.184Z,101322.72
2022-09-16T23:06:32.526Z,101321.84
2022-09-16T23:09:00.760Z,101343.56
2022-09-16T23:11:31.472Z,101328.81
2022-09-16T23:14:00.173Z,101330.53
2022-09-16T23:16:38.290Z,101323.56
2022-09-16T23:19:08.657Z,101322.72
2022-09-16T23:21:37.326Z,101333.16
2022-09-16T23:24:06.938Z,101340.97
2022-09-16T23:26:37.780Z,101342.69
2022-09-16T23:29:08.014Z,101343.56
2022-09-16T23:31:40.270Z,101354.00
2022-09-16T23:34:34.083Z,101345.34
2022-09-16T23:37:02.007Z,101352.28
2022-09-16T23:39:29.499Z,101336.63
2022-09-16T23:41:56.995Z,101331.44
2022-09-16T23:44:25.596Z,101351.41
2022-09-16T23:46:53.096Z,101341.84
2022-09-16T23:49:20.772Z,101334.91
2022-09-16T23:51:48.724Z,101336.66
2022-09-16T23:54:17.211Z,101348.81
2022-09-16T23:56:44.193Z,101348.81
2022-09-16T23:59:11.801Z,101347.09
